createdAt,value
2022-12-23T00:02:07.305Z,1
2022-12-23T00:12:07.305Z,1
2022-12-23T00:22:07.392Z,1
2022-12-23T00:32:07.357Z,1
2022-12-23T00:42:07.358Z,1
2022-12-23T00:52:07.322Z,1
2022-12-23T01:02:07.485Z,1
2022-12-23T01:12:07.337Z,1
2022-12-23T01:22:07.319Z,1
2022-12-23T01:32:07.595Z,1
2022-12-23T01:42:07.287Z,1
2022-12-23T01:52:07.420Z,1
2022-12-23T02:02:07.431Z,1
2022-12-23T02:12:07.418Z,1
2022-12-23T02:22:07.281Z,1
2022-12-23T02:32:07.520Z,1
2022-12-23T02:42:07.293Z,1
2022-12-23T02:52:07.420Z,1
2022-12-23T03:02:07.642Z,1
2022-12-23T03:12:07.400Z,1
2022-12-23T03:22:07.465Z,1
2022-12-23T03:32:07.424Z,1
2022-12-23T03:42:07.479Z,1
2022-12-23T03:52:07.510Z,1
2022-12-23T04:02:07.693Z,1
2022-12-23T04:12:07.412Z,1
2022-12-23T04:22:07.498Z,1
2022-12-23T04:32:07.650Z,1
2022-12-23T04:42:07.507Z,1
2022-12-23T04:52:07.685Z,1
2022-12-23T05:02:07.766Z,1
2022-12-23T05:12:07.620Z,1
2022-12-23T05:22:07.491Z,1
2022-12-23T05:32:07.687Z,1
2022-12-23T05:42:07.464Z,1
2022-12-23T05:52:07.582Z,1
2022-12-23T06:02:07.849Z,1
2022-12-23T06:12:07.738Z,1
2022-12-23T06:22:07.667Z,1
2022-12-23T06:32:07.695Z,1
2022-12-23T06:42:07.652Z,1
2022-12-23T06:52:07.602Z,1
2022-12-23T07:02:07.844Z,1
2022-12-23T07:12:07.595Z,1
2022-12-23T07:22:07.652Z,1
2022-12-23T07:32:07.710Z,1
2022-12-23T07:52:07.786Z,1
2022-12-23T08:02:07.825Z,5
2022-12-23T08:12:07.790Z,15
2022-12-23T08:22:07.668Z,28
2022-12-23T08:32:07.782Z,32
2022-12-23T08:42:07.661Z,43
2022-12-23T08:52:07.784Z,56
2022-12-23T09:02:08.011Z,68
2022-12-23T09:12:07.779Z,72
2022-12-23T09:22:07.847Z,75
2022-12-23T09:32:07.776Z,76
2022-12-23T09:42:07.834Z,78
2022-12-23T09:52:07.753Z,77
2022-12-23T10:02:07.930Z,72
2022-12-23T10:12:07.971Z,72
2022-12-23T10:22:07.846Z,76
2022-12-23T10:32:08.045Z,76
2022-12-23T10:42:07.846Z,80
2022-12-23T10:52:07.974Z,81
2022-12-23T11:02:08.057Z,81
2022-12-23T11:12:08.480Z,79
2022-12-23T11:22:07.888Z,80
2022-12-23T11:32:08.018Z,83
2022-12-23T11:42:07.914Z,77
2022-12-23T11:52:08.660Z,79
2022-12-23T12:02:07.983Z,82
2022-12-23T12:12:07.993Z,82
2022-12-23T12:22:08.075Z,88
2022-12-23T12:32:07.995Z,87
2022-12-23T12:42:08.066Z,85
2022-12-23T12:52:07.985Z,89
2022-12-23T13:02:08.129Z,86
2022-12-23T13:12:08.003Z,87
2022-12-23T13:22:08.070Z,86
2022-12-23T13:32:07.990Z,88
2022-12-23T13:42:08.057Z,85
2022-12-23T13:52:08.184Z,86
2022-12-23T14:02:08.118Z,88
2022-12-23T14:12:08.159Z,87
2022-12-23T14:22:08.089Z,81
2022-12-23T14:32:08.185Z,82
2022-12-23T14:42:10.878Z,81
2022-12-23T14:52:08.151Z,71
2022-12-23T15:02:08.340Z,57
2022-12-23T15:12:08.186Z,58
2022-12-23T15:22:19.803Z,49
2022-12-23T15:32:08.175Z,57
2022-12-23T15:42:08.255Z,50
2022-12-23T15:52:12.203Z,31
2022-12-23T16:02:24.831Z,18
2022-12-23T16:12:08.179Z,14
2022-12-23T16:22:08.222Z,5
2022-12-23T16:32:08.272Z,2
2022-12-23T16:42:08.195Z,1
2022-12-23T16:52:08.410Z,1
2022-12-23T17:02:08.289Z,1
2022-12-23T17:12:08.325Z,1
2022-12-23T17:22:08.177Z,1
2022-12-23T17:32:08.381Z,1
2022-12-23T17:42:08.185Z,1
2022-12-23T17:52:08.310Z,1
2022-12-23T18:02:08.441Z,1
2022-12-23T18:12:08.387Z,1
2022-12-23T18:22:08.367Z,1
2022-12-23T18:32:08.318Z,1
2022-12-23T18:42:08.391Z,1
2022-12-23T18:52:08.292Z,1
2022-12-23T19:02:08.574Z,1
2022-12-23T19:12:08.373Z,1
2022-12-23T19:22:08.438Z,1
2022-12-23T19:32:08.371Z,1
2022-12-23T19:42:08.492Z,1
2022-12-23T19:52:08.497Z,1
2022-12-23T20:02:08.478Z,1
2022-12-23T20:12:08.533Z,1
2022-12-23T20:22:08.610Z,1
2022-12-23T20:32:08.543Z,2
2022-12-23T20:42:08.848Z,1
2022-12-23T20:52:08.590Z,1
2022-12-23T21:02:08.597Z,1
2022-12-23T21:12:08.756Z,1
2022-12-23T21:22:08.879Z,1
2022-12-23T21:32:08.650Z,1
2022-12-23T21:42:08.896Z,1
2022-12-23T21:52:08.636Z,1
2022-12-23T22:02:08.599Z,1
2022-12-23T22:12:08.493Z,1
2022-12-23T22:22:08.562Z,1
2022-12-23T22:32:08.581Z,1
2022-12-23T22:42:08.578Z,1
2022-12-23T22:52:08.725Z,1
2022-12-23T23:02:08.639Z,1
2022-12-23T23:12:08.683Z,1
2022-12-23T23:22:08.559Z,1
2022-12-23T23:32:08.738Z,1
2022-12-23T23:42:08.560Z,1
2022-12-23T23:52:08.677Z,1
